sensor_id;sensor_type;location;lat;lon;timestamp;P1;durP1;ratioP1;P2;durP2;ratioP2
46284;SDS011;32018;59.182;18.148;2022-09-21T00:00:46;0.40;;;0.40;;
46284;SDS011;32018;59.182;18.148;2022-09-21T00:03:13;0.40;;;0.40;;
46284;SDS011;32018;59.182;18.148;2022-09-21T00:05:38;1.13;;;0.40;;
46284;SDS011;32018;59.182;18.148;2022-09-21T00:08:04;0.40;;;0.40;;
46284;SDS011;32018;59.182;18.148;2022-09-21T00:10:30;1.27;;;0.47;;
46284;SDS011;32018;59.182;18.148;2022-09-21T00:12:56;0.55;;;0.55;;
46284;SDS011;32018;59.182;18.148;2022-09-21T00:15:22;0.47;;;0.40;;
46284;SDS011;32018;59.182;18.148;2022-09-21T00:17:50;0.32;;;0.32;;
46284;SDS011;32018;59.182;18.148;2022-09-21T00:20:16;0.40;;;0.40;;
46284;SDS011;32018;59.182;18.148;2022-09-21T00:22:41;0.30;;;0.30;;
46284;SDS011;32018;59.182;18.148;2022-09-21T00:25:08;0.50;;;0.50;;
46284;SDS011;32018;59.182;18.148;2022-09-21T00:27:33;0.50;;;0.50;;
46284;SDS011;32018;59.182;18.148;2022-09-21T00:29:59;0.40;;;0.40;;
46284;SDS011;32018;59.182;18.148;2022-09-21T00:32:29;0.40;;;0.40;;
46284;SDS011;32018;59.182;18.148;2022-09-21T00:34:58;0.47;;;0.30;;
46284;SDS011;32018;59.182;18.148;2022-09-21T00:37:24;0.40;;;0.40;;
46284;SDS011;32018;59.182;18.148;2022-09-21T00:39:49;0.55;;;0.43;;
46284;SDS011;32018;59.182;18.148;2022-09-21T00:44:43;0.40;;;0.40;;
46284;SDS011;32018;59.182;18.148;2022-09-21T00:47:09;0.30;;;0.30;;
46284;SDS011;32018;59.182;18.148;2022-09-21T00:49:36;0.30;;;0.30;;
46284;SDS011;32018;59.182;18.148;2022-09-21T00:52:02;0.95;;;0.50;;
46284;SDS011;32018;59.182;18.148;2022-09-21T00:54:31;0.52;;;0.32;;
46284;SDS011;32018;59.182;18.148;2022-09-21T00:56:58;0.47;;;0.30;;
46284;SDS011;32018;59.182;18.148;2022-09-21T00:59:25;0.52;;;0.40;;
46284;SDS011;32018;59.182;18.148;2022-09-21T01:01:51;0.52;;;0.47;;
46284;SDS011;32018;59.182;18.148;2022-09-21T01:04:17;0.40;;;0.40;;
46284;SDS011;32018;59.182;18.148;2022-09-21T01:06:43;0.50;;;0.45;;
46284;SDS011;32018;59.182;18.148;2022-09-21T01:09:09;0.57;;;0.50;;
46284;SDS011;32018;59.182;18.148;2022-09-21T01:11:50;0.55;;;0.32;;
46284;SDS011;32018;59.182;18.148;2022-09-21T01:19:31;0.30;;;0.30;;
46284;SDS011;32018;59.182;18.148;2022-09-21T01:27:29;0.30;;;0.30;;
46284;SDS011;32018;59.182;18.148;2022-09-21T01:29:50;0.30;;;0.30;;
46284;SDS011;32018;59.182;18.148;2022-09-21T01:32:32;0.40;;;0.28;;
46284;SDS011;32018;59.182;18.148;2022-09-21T01:35:03;0.85;;;0.30;;
46284;SDS011;32018;59.182;18.148;2022-09-21T01:37:52;0.35;;;0.35;;
46284;SDS011;32018;59.182;18.148;2022-09-21T01:40:18;0.30;;;0.30;;
46284;SDS011;32018;59.182;18.148;2022-09-21T01:42:44;0.32;;;0.30;;
46284;SDS011;32018;59.182;18.148;2022-09-21T01:45:10;0.55;;;0.40;;
46284;SDS011;32018;59.182;18.148;2022-09-21T01:47:37;0.30;;;0.30;;
46284;SDS011;32018;59.182;18.148;2022-09-21T01:50:05;0.45;;;0.40;;
46284;SDS011;32018;59.182;18.148;2022-09-21T01:52:36;0.57;;;0.57;;
46284;SDS011;32018;59.182;18.148;2022-09-21T01:55:03;0.63;;;0.40;;
46284;SDS011;32018;59.182;18.148;2022-09-21T01:57:33;0.73;;;0.43;;
46284;SDS011;32018;59.182;18.148;2022-09-21T02:00:00;0.30;;;0.30;;
46284;SDS011;32018;59.182;18.148;2022-09-21T02:02:30;0.22;;;0.22;;
46284;SDS011;32018;59.182;18.148;2022-09-21T02:04:57;0.40;;;0.40;;
46284;SDS011;32018;59.182;18.148;2022-09-21T02:07:24;0.40;;;0.30;;
46284;SDS011;32018;59.182;18.148;2022-09-21T02:09:49;0.30;;;0.30;;
46284;SDS011;32018;59.182;18.148;2022-09-21T02:12:15;0.50;;;0.40;;
46284;SDS011;32018;59.182;18.148;2022-09-21T02:14:41;0.40;;;0.40;;
46284;SDS011;32018;59.182;18.148;2022-09-21T02:19:46;0.50;;;0.30;;
46284;SDS011;32018;59.182;18.148;2022-09-21T02:22:21;0.30;;;0.30;;
46284;SDS011;32018;59.182;18.148;2022-09-21T02:24:54;0.22;;;0.22;;
46284;SDS011;32018;59.182;18.148;2022-09-21T02:27:37;0.40;;;0.40;;
46284;SDS011;32018;59.182;18.148;2022-09-21T02:35:30;0.40;;;0.40;;
46284;SDS011;32018;59.182;18.148;2022-09-21T02:40:24;0.38;;;0.38;;
46284;SDS011;32018;59.182;18.148;2022-09-21T02:43:11;0.40;;;0.40;;
46284;SDS011;32018;59.182;18.148;2022-09-21T02:45:41;0.30;;;0.30;;
46284;SDS011;32018;59.182;18.148;2022-09-21T02:48:19;0.52;;;0.20;;
46284;SDS011;32018;59.182;18.148;2022-09-21T02:50:47;0.30;;;0.30;;
46284;SDS011;32018;59.182;18.148;2022-09-21T02:53:16;0.20;;;0.20;;
46284;SDS011;32018;59.182;18.148;2022-09-21T02:55:42;0.38;;;0.38;;
46284;SDS011;32018;59.182;18.148;2022-09-21T02:58:09;0.30;;;0.30;;
46284;SDS011;32018;59.182;18.148;2022-09-21T03:00:37;0.38;;;0.38;;
46284;SDS011;32018;59.182;18.148;2022-09-21T03:03:13;0.85;;;0.43;;
46284;SDS011;32018;59.182;18.148;2022-09-21T03:05:41;0.32;;;0.32;;
46284;SDS011;32018;59.182;18.148;2022-09-21T03:08:06;0.40;;;0.40;;
46284;SDS011;32018;59.182;18.148;2022-09-21T03:10:32;1.08;;;0.40;;
46284;SDS011;32018;59.182;18.148;2022-09-21T03:12:57;0.40;;;0.40;;
46284;SDS011;32018;59.182;18.148;2022-09-21T03:15:23;0.30;;;0.30;;
46284;SDS011;32018;59.182;18.148;2022-09-21T03:17:50;0.30;;;0.30;;
46284;SDS011;32018;59.182;18.148;2022-09-21T03:20:15;0.30;;;0.30;;
46284;SDS011;32018;59.182;18.148;2022-09-21T03:22:40;0.55;;;0.40;;
46284;SDS011;32018;59.182;18.148;2022-09-21T03:25:06;0.47;;;0.47;;
46284;SDS011;32018;59.182;18.148;2022-09-21T03:27:33;0.50;;;0.50;;
46284;SDS011;32018;59.182;18.148;2022-09-21T03:29:58;0.40;;;0.40;;
46284;SDS011;32018;59.182;18.148;2022-09-21T03:32:23;0.30;;;0.30;;
46284;SDS011;32018;59.182;18.148;2022-09-21T03:34:49;0.68;;;0.38;;
46284;SDS011;32018;59.182;18.148;2022-09-21T03:37:14;0.35;;;0.35;;
46284;SDS011;32018;59.182;18.148;2022-09-21T03:39:40;0.60;;;0.50;;
46284;SDS011;32018;59.182;18.148;2022-09-21T03:42:06;0.30;;;0.30;;
46284;SDS011;32018;59.182;18.148;2022-09-21T03:44:33;0.50;;;0.45;;
46284;SDS011;32018;59.182;18.148;2022-09-21T03:46:58;0.40;;;0.40;;
46284;SDS011;32018;59.182;18.148;2022-09-21T03:49:23;0.70;;;0.50;;
46284;SDS011;32018;59.182;18.148;2022-09-21T03:51:49;0.40;;;0.40;;
46284;SDS011;32018;59.182;18.148;2022-09-21T03:54:14;0.65;;;0.55;;
46284;SDS011;32018;59.182;18.148;2022-09-21T03:56:39;0.95;;;0.47;;
46284;SDS011;32018;59.182;18.148;2022-09-21T03:59:05;0.30;;;0.30;;
46284;SDS011;32018;59.182;18.148;2022-09-21T04:01:30;0.30;;;0.30;;
46284;SDS011;32018;59.182;18.148;2022-09-21T04:03:55;0.40;;;0.40;;
46284;SDS011;32018;59.182;18.148;2022-09-21T04:06:21;0.30;;;0.30;;
46284;SDS011;32018;59.182;18.148;2022-09-21T04:08:46;0.30;;;0.30;;
46284;SDS011;32018;59.182;18.148;2022-09-21T04:11:16;0.40;;;0.40;;
46284;SDS011;32018;59.182;18.148;2022-09-21T04:16:10;0.30;;;0.30;;
46284;SDS011;32018;59.182;18.148;2022-09-21T04:18:36;0.30;;;0.30;;
46284;SDS011;32018;59.182;18.148;2022-09-21T04:21:02;0.40;;;0.40;;
46284;SDS011;32018;59.182;18.148;2022-09-21T04:23:29;0.45;;;0.40;;
46284;SDS011;32018;59.182;18.148;2022-09-21T04:25:54;0.30;;;0.30;;
46284;SDS011;32018;59.182;18.148;2022-09-21T04:28:21;0.40;;;0.40;;
46284;SDS011;32018;59.182;18.148;2022-09-21T04:30:51;0.40;;;0.40;;
46284;SDS011;32018;59.182;18.148;2022-09-21T04:33:16;0.30;;;0.30;;
46284;SDS011;32018;59.182;18.148;2022-09-21T04:35:41;0.45;;;0.30;;
46284;SDS011;32018;59.182;18.148;2022-09-21T04:38:07;0.30;;;0.30;;
46284;SDS011;32018;59.182;18.148;2022-09-21T04:40:32;1.15;;;0.35;;
46284;SDS011;32018;59.182;18.148;2022-09-21T04:42:58;0.25;;;0.25;;
46284;SDS011;32018;59.182;18.148;2022-09-21T04:45:23;0.90;;;0.32;;
46284;SDS011;32018;59.182;18.148;2022-09-21T04:47:49;0.20;;;0.20;;
46284;SDS011;32018;59.182;18.148;2022-09-21T04:50:14;0.20;;;0.20;;
46284;SDS011;32018;59.182;18.148;2022-09-21T04:52:40;0.30;;;0.30;;
46284;SDS011;32018;59.182;18.148;2022-09-21T04:55:06;0.40;;;0.40;;
46284;SDS011;32018;59.182;18.148;2022-09-21T04:57:31;0.30;;;0.20;;
46284;SDS011;32018;59.182;18.148;2022-09-21T04:59:57;0.28;;;0.22;;
46284;SDS011;32018;59.182;18.148;2022-09-21T05:02:22;0.20;;;0.20;;
46284;SDS011;32018;59.182;18.148;2022-09-21T05:04:48;0.40;;;0.30;;
46284;SDS011;32018;59.182;18.148;2022-09-21T05:07:14;0.40;;;0.40;;
46284;SDS011;32018;59.182;18.148;2022-09-21T05:09:39;0.35;;;0.30;;
46284;SDS011;32018;59.182;18.148;2022-09-21T05:12:23;0.30;;;0.30;;
46284;SDS011;32018;59.182;18.148;2022-09-21T05:14:49;0.20;;;0.20;;
46284;SDS011;32018;59.182;18.148;2022-09-21T05:17:14;0.45;;;0.40;;
46284;SDS011;32018;59.182;18.148;2022-09-21T05:19:40;0.22;;;0.22;;
46284;SDS011;32018;59.182;18.148;2022-09-21T05:22:05;1.83;;;0.35;;
46284;SDS011;32018;59.182;18.148;2022-09-21T05:24:30;0.30;;;0.30;;
46284;SDS011;32018;59.182;18.148;2022-09-21T05:26:56;0.73;;;0.30;;
46284;SDS011;32018;59.182;18.148;2022-09-21T05:29:21;0.35;;;0.35;;
46284;SDS011;32018;59.182;18.148;2022-09-21T05:31:58;0.28;;;0.28;;
46284;SDS011;32018;59.182;18.148;2022-09-21T05:36:58;0.30;;;0.30;;
46284;SDS011;32018;59.182;18.148;2022-09-21T05:39:25;0.30;;;0.30;;
46284;SDS011;32018;59.182;18.148;2022-09-21T05:41:51;0.30;;;0.30;;
46284;SDS011;32018;59.182;18.148;2022-09-21T05:44:17;0.40;;;0.28;;
46284;SDS011;32018;59.182;18.148;2022-09-21T05:49:14;0.20;;;0.20;;
46284;SDS011;32018;59.182;18.148;2022-09-21T05:51:49;0.20;;;0.20;;
46284;SDS011;32018;59.182;18.148;2022-09-21T06:01:59;0.32;;;0.30;;
46284;SDS011;32018;59.182;18.148;2022-09-21T06:04:28;0.30;;;0.30;;
46284;SDS011;32018;59.182;18.148;2022-09-21T06:06:54;0.30;;;0.30;;
46284;SDS011;32018;59.182;18.148;2022-09-21T06:09:19;0.60;;;0.30;;
46284;SDS011;32018;59.182;18.148;2022-09-21T06:11:45;0.57;;;0.30;;
46284;SDS011;32018;59.182;18.148;2022-09-21T06:14:11;1.10;;;0.30;;
46284;SDS011;32018;59.182;18.148;2022-09-21T06:16:37;0.20;;;0.20;;
46284;SDS011;32018;59.182;18.148;2022-09-21T06:19:02;0.30;;;0.30;;
46284;SDS011;32018;59.182;18.148;2022-09-21T06:21:28;1.77;;;0.30;;
46284;SDS011;32018;59.182;18.148;2022-09-21T06:23:53;0.30;;;0.30;;
46284;SDS011;32018;59.182;18.148;2022-09-21T06:26:18;0.77;;;0.40;;
46284;SDS011;32018;59.182;18.148;2022-09-21T06:28:44;0.30;;;0.30;;
46284;SDS011;32018;59.182;18.148;2022-09-21T06:31:09;0.30;;;0.30;;
46284;SDS011;32018;59.182;18.148;2022-09-21T06:33:34;0.30;;;0.30;;
46284;SDS011;32018;59.182;18.148;2022-09-21T06:36:01;0.32;;;0.30;;
46284;SDS011;32018;59.182;18.148;2022-09-21T06:38:27;0.50;;;0.40;;
46284;SDS011;32018;59.182;18.148;2022-09-21T06:40:53;0.30;;;0.28;;
46284;SDS011;32018;59.182;18.148;2022-09-21T06:43:18;0.50;;;0.50;;
46284;SDS011;32018;59.182;18.148;2022-09-21T06:45:51;0.40;;;0.40;;
46284;SDS011;32018;59.182;18.148;2022-09-21T06:48:16;0.60;;;0.40;;
46284;SDS011;32018;59.182;18.148;2022-09-21T06:50:42;0.63;;;0.40;;
46284;SDS011;32018;59.182;18.148;2022-09-21T06:53:07;0.32;;;0.32;;
46284;SDS011;32018;59.182;18.148;2022-09-21T06:55:32;0.45;;;0.45;;
46284;SDS011;32018;59.182;18.148;2022-09-21T06:58:02;0.77;;;0.38;;
46284;SDS011;32018;59.182;18.148;2022-09-21T07:00:27;0.45;;;0.40;;
46284;SDS011;32018;59.182;18.148;2022-09-21T07:02:53;0.40;;;0.40;;
46284;SDS011;32018;59.182;18.148;2022-09-21T07:05:18;0.40;;;0.40;;
46284;SDS011;32018;59.182;18.148;2022-09-21T07:07:44;0.43;;;0.43;;
46284;SDS011;32018;59.182;18.148;2022-09-21T07:10:09;0.57;;;0.35;;
46284;SDS011;32018;59.182;18.148;2022-09-21T07:12:35;0.32;;;0.32;;
46284;SDS011;32018;59.182;18.148;2022-09-21T07:15:04;0.80;;;0.40;;
46284;SDS011;32018;59.182;18.148;2022-09-21T07:17:30;2.25;;;0.73;;
46284;SDS011;32018;59.182;18.148;2022-09-21T07:19:56;0.40;;;0.30;;
46284;SDS011;32018;59.182;18.148;2022-09-21T07:22:21;0.50;;;0.40;;
46284;SDS011;32018;59.182;18.148;2022-09-21T07:24:46;0.47;;;0.30;;
46284;SDS011;32018;59.182;18.148;2022-09-21T07:27:12;0.63;;;0.40;;
46284;SDS011;32018;59.182;18.148;2022-09-21T07:29:37;0.30;;;0.30;;
46284;SDS011;32018;59.182;18.148;2022-09-21T07:32:02;1.38;;;0.52;;
46284;SDS011;32018;59.182;18.148;2022-09-21T07:34:33;0.50;;;0.50;;
46284;SDS011;32018;59.182;18.148;2022-09-21T07:36:58;0.60;;;0.60;;
46284;SDS011;32018;59.182;18.148;2022-09-21T07:39:23;0.35;;;0.35;;
46284;SDS011;32018;59.182;18.148;2022-09-21T07:41:49;0.57;;;0.40;;
46284;SDS011;32018;59.182;18.148;2022-09-21T07:44:14;0.40;;;0.35;;
46284;SDS011;32018;59.182;18.148;2022-09-21T07:46:39;0.40;;;0.40;;
46284;SDS011;32018;59.182;18.148;2022-09-21T07:49:05;1.80;;;0.38;;
46284;SDS011;32018;59.182;18.148;2022-09-21T07:51:30;3.80;;;0.82;;
46284;SDS011;32018;59.182;18.148;2022-09-21T07:53:56;0.40;;;0.30;;
46284;SDS011;32018;59.182;18.148;2022-09-21T07:56:21;2.28;;;0.60;;
46284;SDS011;32018;59.182;18.148;2022-09-21T07:58:47;0.30;;;0.30;;
46284;SDS011;32018;59.182;18.148;2022-09-21T08:01:34;0.65;;;0.52;;
46284;SDS011;32018;59.182;18.148;2022-09-21T08:04:00;1.48;;;0.40;;
46284;SDS011;32018;59.182;18.148;2022-09-21T08:06:27;0.30;;;0.30;;
46284;SDS011;32018;59.182;18.148;2022-09-21T08:08:53;0.40;;;0.40;;
46284;SDS011;32018;59.182;18.148;2022-09-21T08:11:19;0.50;;;0.30;;
46284;SDS011;32018;59.182;18.148;2022-09-21T08:13:46;0.30;;;0.30;;
46284;SDS011;32018;59.182;18.148;2022-09-21T08:16:12;0.30;;;0.30;;
46284;SDS011;32018;59.182;18.148;2022-09-21T08:18:38;0.50;;;0.50;;
46284;SDS011;32018;59.182;18.148;2022-09-21T08:21:04;0.40;;;0.40;;
46284;SDS011;32018;59.182;18.148;2022-09-21T08:23:29;0.68;;;0.40;;
46284;SDS011;32018;59.182;18.148;2022-09-21T08:25:58;0.40;;;0.40;;
46284;SDS011;32018;59.182;18.148;2022-09-21T08:28:25;0.40;;;0.40;;
46284;SDS011;32018;59.182;18.148;2022-09-21T08:30:50;0.47;;;0.30;;
46284;SDS011;32018;59.182;18.148;2022-09-21T08:33:16;4.75;;;0.63;;
46284;SDS011;32018;59.182;18.148;2022-09-21T08:35:41;0.82;;;0.40;;
46284;SDS011;32018;59.182;18.148;2022-09-21T08:38:06;0.45;;;0.43;;
46284;SDS011;32018;59.182;18.148;2022-09-21T08:40:32;2.13;;;0.50;;
46284;SDS011;32018;59.182;18.148;2022-09-21T08:42:59;1.77;;;0.50;;
46284;SDS011;32018;59.182;18.148;2022-09-21T08:45:31;0.30;;;0.30;;
46284;SDS011;32018;59.182;18.148;2022-09-21T08:47:58;3.33;;;0.38;;
46284;SDS011;32018;59.182;18.148;2022-09-21T08:50:32;0.57;;;0.50;;
46284;SDS011;32018;59.182;18.148;2022-09-21T08:53:00;1.95;;;0.40;;
46284;SDS011;32018;59.182;18.148;2022-09-21T08:55:26;0.30;;;0.20;;
46284;SDS011;32018;59.182;18.148;2022-09-21T08:57:51;0.60;;;0.40;;
46284;SDS011;32018;59.182;18.148;2022-09-21T09:00:17;1.48;;;0.30;;
46284;SDS011;32018;59.182;18.148;2022-09-21T09:05:39;4.25;;;0.40;;
46284;SDS011;32018;59.182;18.148;2022-09-21T09:21:15;0.35;;;0.25;;
46284;SDS011;32018;59.182;18.148;2022-09-21T09:23:48;1.27;;;0.60;;
46284;SDS011;32018;59.182;18.148;2022-09-21T09:26:20;0.60;;;0.35;;
46284;SDS011;32018;59.182;18.148;2022-09-21T09:28:59;4.55;;;0.40;;
46284;SDS011;32018;59.182;18.148;2022-09-21T09:31:33;1.08;;;0.40;;
46284;SDS011;32018;59.182;18.148;2022-09-21T09:34:15;0.98;;;0.45;;
46284;SDS011;32018;59.182;18.148;2022-09-21T09:36:46;0.35;;;0.20;;
46284;SDS011;32018;59.182;18.148;2022-09-21T09:39:13;0.20;;;0.20;;
46284;SDS011;32018;59.182;18.148;2022-09-21T09:52:03;0.20;;;0.20;;
46284;SDS011;32018;59.182;18.148;2022-09-21T09:54:31;0.45;;;0.25;;
46284;SDS011;32018;59.182;18.148;2022-09-21T09:56:58;0.30;;;0.22;;
46284;SDS011;32018;59.182;18.148;2022-09-21T10:02:05;1.30;;;0.20;;
46284;SDS011;32018;59.182;18.148;2022-09-21T10:04:31;0.30;;;0.30;;
46284;SDS011;32018;59.182;18.148;2022-09-21T10:06:58;0.30;;;0.20;;
46284;SDS011;32018;59.182;18.148;2022-09-21T10:11:53;0.30;;;0.20;;
46284;SDS011;32018;59.182;18.148;2022-09-21T10:14:20;0.28;;;0.20;;
46284;SDS011;32018;59.182;18.148;2022-09-21T10:16:47;0.20;;;0.15;;
46284;SDS011;32018;59.182;18.148;2022-09-21T10:19:22;0.52;;;0.20;;
46284;SDS011;32018;59.182;18.148;2022-09-21T10:21:49;0.43;;;0.28;;
46284;SDS011;32018;59.182;18.148;2022-09-21T10:24:20;0.52;;;0.22;;
46284;SDS011;32018;59.182;18.148;2022-09-21T10:26:51;0.13;;;0.13;;
46284;SDS011;32018;59.182;18.148;2022-09-21T10:31:53;0.30;;;0.30;;
46284;SDS011;32018;59.182;18.148;2022-09-21T10:34:21;1.10;;;0.20;;
46284;SDS011;32018;59.182;18.148;2022-09-21T10:36:50;0.55;;;0.30;;
46284;SDS011;32018;59.182;18.148;2022-09-21T10:39:17;3.95;;;0.25;;
46284;SDS011;32018;59.182;18.148;2022-09-21T10:41:46;0.57;;;0.30;;
46284;SDS011;32018;59.182;18.148;2022-09-21T10:44:15;0.57;;;0.30;;
46284;SDS011;32018;59.182;18.148;2022-09-21T10:46:42;0.20;;;0.20;;
46284;SDS011;32018;59.182;18.148;2022-09-21T10:49:21;0.30;;;0.30;;
46284;SDS011;32018;59.182;18.148;2022-09-21T10:51:48;0.60;;;0.22;;
46284;SDS011;32018;59.182;18.148;2022-09-21T10:54:16;0.20;;;0.17;;
46284;SDS011;32018;59.182;18.148;2022-09-21T10:56:50;0.40;;;0.22;;
46284;SDS011;32018;59.182;18.148;2022-09-21T10:59:24;0.20;;;0.20;;
46284;SDS011;32018;59.182;18.148;2022-09-21T11:01:51;0.95;;;0.38;;
46284;SDS011;32018;59.182;18.148;2022-09-21T11:04:40;0.88;;;0.13;;
46284;SDS011;32018;59.182;18.148;2022-09-21T11:09:38;0.10;;;0.10;;
46284;SDS011;32018;59.182;18.148;2022-09-21T11:19:56;0.10;;;0.10;;
46284;SDS011;32018;59.182;18.148;2022-09-21T11:25:25;0.30;;;0.10;;
46284;SDS011;32018;59.182;18.148;2022-09-21T11:27:57;0.30;;;0.10;;
46284;SDS011;32018;59.182;18.148;2022-09-21T11:30:25;0.10;;;0.10;;
46284;SDS011;32018;59.182;18.148;2022-09-21T11:33:14;0.10;;;0.10;;
46284;SDS011;32018;59.182;18.148;2022-09-21T11:38:14;0.20;;;0.20;;
46284;SDS011;32018;59.182;18.148;2022-09-21T11:40:58;0.40;;;0.20;;
46284;SDS011;32018;59.182;18.148;2022-09-21T11:51:20;0.75;;;0.20;;
46284;SDS011;32018;59.182;18.148;2022-09-21T11:54:36;0.43;;;0.20;;
46284;SDS011;32018;59.182;18.148;2022-09-21T11:56:37;0.20;;;0.20;;
46284;SDS011;32018;59.182;18.148;2022-09-21T12:01:47;0.52;;;0.20;;
46284;SDS011;32018;59.182;18.148;2022-09-21T12:04:31;0.10;;;0.00;;
46284;SDS011;32018;59.182;18.148;2022-09-21T12:07:04;0.88;;;0.13;;
46284;SDS011;32018;59.182;18.148;2022-09-21T12:09:35;0.10;;;0.10;;
46284;SDS011;32018;59.182;18.148;2022-09-21T12:14:41;0.10;;;0.10;;
46284;SDS011;32018;59.182;18.148;2022-09-21T12:22:08;0.30;;;0.10;;
46284;SDS011;32018;59.182;18.148;2022-09-21T12:24:38;0.20;;;0.20;;
46284;SDS011;32018;59.182;18.148;2022-09-21T12:27:19;0.20;;;0.20;;
46284;SDS011;32018;59.182;18.148;2022-09-21T12:29:47;0.77;;;0.22;;
46284;SDS011;32018;59.182;18.148;2022-09-21T12:34:48;0.10;;;0.10;;
46284;SDS011;32018;59.182;18.148;2022-09-21T12:39:57;0.10;;;0.10;;
46284;SDS011;32018;59.182;18.148;2022-09-21T12:45:16;0.10;;;0.10;;
46284;SDS011;32018;59.182;18.148;2022-09-21T12:47:51;0.55;;;0.20;;
46284;SDS011;32018;59.182;18.148;2022-09-21T12:52:49;0.10;;;0.10;;
46284;SDS011;32018;59.182;18.148;2022-09-21T12:55:37;2.65;;;0.68;;
46284;SDS011;32018;59.182;18.148;2022-09-21T12:58:18;0.15;;;0.15;;
46284;SDS011;32018;59.182;18.148;2022-09-21T13:00:53;0.28;;;0.20;;
46284;SDS011;32018;59.182;18.148;2022-09-21T13:03:28;1.00;;;0.30;;
46284;SDS011;32018;59.182;18.148;2022-09-21T13:06:18;0.20;;;0.20;;
46284;SDS011;32018;59.182;18.148;2022-09-21T13:08:43;0.30;;;0.15;;
46284;SDS011;32018;59.182;18.148;2022-09-21T13:11:10;0.30;;;0.10;;
46284;SDS011;32018;59.182;18.148;2022-09-21T13:16:01;0.10;;;0.10;;
46284;SDS011;32018;59.182;18.148;2022-09-21T13:20:53;0.13;;;0.10;;
46284;SDS011;32018;59.182;18.148;2022-09-21T13:25:59;0.50;;;0.10;;
46284;SDS011;32018;59.182;18.148;2022-09-21T13:28:38;0.10;;;0.10;;
46284;SDS011;32018;59.182;18.148;2022-09-21T13:33:40;0.10;;;0.10;;
46284;SDS011;32018;59.182;18.148;2022-09-21T13:36:30;0.35;;;0.20;;
46284;SDS011;32018;59.182;18.148;2022-09-21T13:38:57;0.10;;;0.10;;
46284;SDS011;32018;59.182;18.148;2022-09-21T13:41:26;0.10;;;0.10;;
46284;SDS011;32018;59.182;18.148;2022-09-21T13:51:34;0.25;;;0.10;;
46284;SDS011;32018;59.182;18.148;2022-09-21T13:54:14;0.55;;;0.10;;
46284;SDS011;32018;59.182;18.148;2022-09-21T13:56:39;0.10;;;0.10;;
46284;SDS011;32018;59.182;18.148;2022-09-21T13:59:12;0.10;;;0.10;;
46284;SDS011;32018;59.182;18.148;2022-09-21T14:01:42;1.85;;;0.40;;
46284;SDS011;32018;59.182;18.148;2022-09-21T14:04:27;0.00;;;0.00;;
46284;SDS011;32018;59.182;18.148;2022-09-21T14:06:54;0.10;;;0.10;;
46284;SDS011;32018;59.182;18.148;2022-09-21T14:09:30;0.10;;;0.10;;
46284;SDS011;32018;59.182;18.148;2022-09-21T14:12:06;4.30;;;0.55;;
46284;SDS011;32018;59.182;18.148;2022-09-21T14:14:36;3.30;;;0.30;;
46284;SDS011;32018;59.182;18.148;2022-09-21T14:17:14;0.55;;;0.22;;
46284;SDS011;32018;59.182;18.148;2022-09-21T14:27:30;0.10;;;0.10;;
46284;SDS011;32018;59.182;18.148;2022-09-21T14:30:01;0.30;;;0.20;;
46284;SDS011;32018;59.182;18.148;2022-09-21T14:32:28;0.85;;;0.20;;
46284;SDS011;32018;59.182;18.148;2022-09-21T14:35:01;0.98;;;0.20;;
46284;SDS011;32018;59.182;18.148;2022-09-21T14:37:41;0.50;;;0.50;;
46284;SDS011;32018;59.182;18.148;2022-09-21T14:40:22;2.38;;;1.70;;
46284;SDS011;32018;59.182;18.148;2022-09-21T14:42:49;1.77;;;1.60;;
46284;SDS011;32018;59.182;18.148;2022-09-21T14:45:16;2.55;;;1.67;;
46284;SDS011;32018;59.182;18.148;2022-09-21T14:50:33;1.00;;;0.68;;
46284;SDS011;32018;59.182;18.148;2022-09-21T14:55:28;4.95;;;4.20;;
46284;SDS011;32018;59.182;18.148;2022-09-21T15:00:44;1.67;;;1.58;;
46284;SDS011;32018;59.182;18.148;2022-09-21T15:09:51;1.08;;;0.90;;
46284;SDS011;32018;59.182;18.148;2022-09-21T15:12:07;0.60;;;0.40;;
46284;SDS011;32018;59.182;18.148;2022-09-21T15:14:39;2.65;;;0.50;;
46284;SDS011;32018;59.182;18.148;2022-09-21T15:17:17;0.30;;;0.30;;
46284;SDS011;32018;59.182;18.148;2022-09-21T15:19:46;0.57;;;0.20;;
46284;SDS011;32018;59.182;18.148;2022-09-21T15:22:18;0.52;;;0.40;;
46284;SDS011;32018;59.182;18.148;2022-09-21T15:24:50;0.40;;;0.30;;
46284;SDS011;32018;59.182;18.148;2022-09-21T15:27:17;0.20;;;0.20;;
46284;SDS011;32018;59.182;18.148;2022-09-21T15:29:44;0.70;;;0.50;;
46284;SDS011;32018;59.182;18.148;2022-09-21T15:32:54;1.33;;;0.50;;
46284;SDS011;32018;59.182;18.148;2022-09-21T15:35:00;1.60;;;1.50;;
46284;SDS011;32018;59.182;18.148;2022-09-21T15:37:26;1.45;;;1.35;;
46284;SDS011;32018;59.182;18.148;2022-09-21T15:39:59;1.42;;;1.33;;
46284;SDS011;32018;59.182;18.148;2022-09-21T15:42:25;1.17;;;0.45;;
46284;SDS011;32018;59.182;18.148;2022-09-21T15:45:00;0.30;;;0.30;;
46284;SDS011;32018;59.182;18.148;2022-09-21T15:47:29;0.52;;;0.50;;
46284;SDS011;32018;59.182;18.148;2022-09-21T15:49:56;1.05;;;0.40;;
46284;SDS011;32018;59.182;18.148;2022-09-21T15:52:33;1.40;;;1.10;;
46284;SDS011;32018;59.182;18.148;2022-09-21T15:55:05;1.05;;;0.70;;
46284;SDS011;32018;59.182;18.148;2022-09-21T15:57:37;0.30;;;0.30;;
46284;SDS011;32018;59.182;18.148;2022-09-21T16:00:49;0.57;;;0.30;;
46284;SDS011;32018;59.182;18.148;2022-09-21T16:05:20;2.97;;;0.60;;
46284;SDS011;32018;59.182;18.148;2022-09-21T16:07:45;0.30;;;0.30;;
46284;SDS011;32018;59.182;18.148;2022-09-21T16:18:02;3.65;;;3.35;;
46284;SDS011;32018;59.182;18.148;2022-09-21T16:23:16;4.45;;;4.05;;
46284;SDS011;32018;59.182;18.148;2022-09-21T16:25:43;3.90;;;3.22;;
46284;SDS011;32018;59.182;18.148;2022-09-21T16:30:47;5.28;;;4.88;;
46284;SDS011;32018;59.182;18.148;2022-09-21T16:36:00;4.97;;;4.47;;
46284;SDS011;32018;59.182;18.148;2022-09-21T16:38:28;2.20;;;1.67;;
46284;SDS011;32018;59.182;18.148;2022-09-21T16:40:54;1.00;;;0.90;;
46284;SDS011;32018;59.182;18.148;2022-09-21T16:43:21;1.52;;;1.20;;
46284;SDS011;32018;59.182;18.148;2022-09-21T16:45:47;1.40;;;1.30;;
46284;SDS011;32018;59.182;18.148;2022-09-21T16:48:12;1.30;;;1.13;;
46284;SDS011;32018;59.182;18.148;2022-09-21T16:50:37;1.00;;;0.80;;
46284;SDS011;32018;59.182;18.148;2022-09-21T16:53:03;1.52;;;0.70;;
46284;SDS011;32018;59.182;18.148;2022-09-21T16:55:29;1.42;;;0.82;;
46284;SDS011;32018;59.182;18.148;2022-09-21T16:57:54;1.15;;;0.85;;
46284;SDS011;32018;59.182;18.148;2022-09-21T17:00:20;0.98;;;0.82;;
46284;SDS011;32018;59.182;18.148;2022-09-21T17:02:46;1.88;;;1.63;;
46284;SDS011;32018;59.182;18.148;2022-09-21T17:05:12;0.75;;;0.75;;
46284;SDS011;32018;59.182;18.148;2022-09-21T17:07:48;1.58;;;1.17;;
46284;SDS011;32018;59.182;18.148;2022-09-21T17:12:39;4.80;;;4.40;;
46284;SDS011;32018;59.182;18.148;2022-09-21T17:15:05;2.00;;;1.67;;
46284;SDS011;32018;59.182;18.148;2022-09-21T17:17:32;5.32;;;4.85;;
46284;SDS011;32018;59.182;18.148;2022-09-21T17:19:57;3.28;;;3.05;;
46284;SDS011;32018;59.182;18.148;2022-09-21T17:22:26;4.10;;;3.80;;
46284;SDS011;32018;59.182;18.148;2022-09-21T17:24:52;2.95;;;2.72;;
46284;SDS011;32018;59.182;18.148;2022-09-21T17:27:20;1.75;;;1.60;;
46284;SDS011;32018;59.182;18.148;2022-09-21T17:29:46;1.40;;;1.30;;
46284;SDS011;32018;59.182;18.148;2022-09-21T17:32:16;1.55;;;1.40;;
46284;SDS011;32018;59.182;18.148;2022-09-21T17:34:45;8.35;;;6.93;;
46284;SDS011;32018;59.182;18.148;2022-09-21T17:37:10;6.57;;;5.97;;
46284;SDS011;32018;59.182;18.148;2022-09-21T17:39:36;7.07;;;6.47;;